Luxor, Pennsylvania
Current Conditions -  °F | °C
As of 3:47 PM on Sunday 23 Nov 2014 (Local Time) from KLBE Reporting Station
Scattered Clouds Scattered Clouds  
Wind Chill: 63°   Ceiling: Unl
Heat Index: 63°   Visibility: 20mi
Dew Point: 41°   Wind: 17mph
Humidity: 45%   Direction: 150°SSE
Pressure: 29.91"   Gusts: NA
Location:  40.33°N, 79.48°W
Report Text: KLBE 232047Z 15015KT 20SM SCT150 17/05 A2991
Loading
Personal Weather Stations






























Interactive Weather Map New forecast layout! Learn more

10-Day Weather Forecast

Advertisements
Track Severe Weather on mobile